Time;durP1;ratioP1;P1;durP2;ratioP2;P2;SDS_P1;SDS_P2;PMS_P1;PMS_P2;Temp;Humidity;BMP_temperature;BMP_pressure;BME280_temperature;BME280_humidity;BME280_pressure;Samples;Min_cycle;Max_cycle;Signal;HPM_P1;HPM_P2
2022/09/14 00:05:15;;;;;;;;;;;;;;;13.29;100.00;100910.28;5064222;28;20252;-73
2022/09/14 00:07:56;;;;;;;;;;;;;;;13.29;100.00;100905.81;5062621;28;19989;-74
2022/09/14 00:10:38;;;;;;;;;;;;;;;13.29;100.00;100904.97;5042539;28;19929;-74
2022/09/14 00:13:10;;;;;;;;;;;;;;;13.30;100.00;100904.03;5055361;28;20091;-73
2022/09/14 00:15:36;;;;;;;;;;;;;;;13.29;100.00;100907.63;5044224;28;19974;-73
2022/09/14 00:18:02;;;;;;;;;;;;;;;13.28;100.00;100909.41;5033932;28;19925;-73
2022/09/14 00:20:28;;;;;;;;;;;;;;;13.28;100.00;100901.44;5053622;28;19932;-73
2022/09/14 00:22:53;;;;;;;;;;;;;;;13.29;100.00;100907.63;5054338;28;19994;-74
2022/09/14 00:25:19;;;;;;;;;;;;;;;13.27;100.00;100909.50;5057149;28;19925;-73
2022/09/14 00:27:44;;;;;;;;;;;;;;;13.26;100.00;100902.47;5042880;28;20555;-73
2022/09/14 00:30:10;;;;;;;;;;;;;;;13.26;100.00;100913.09;5048430;28;19928;-74
2022/09/14 00:32:35;;;;;;;;;;;;;;;13.23;100.00;100900.84;5032213;28;20511;-74
2022/09/14 00:35:00;;;;;;;;;;;;;;;13.22;100.00;100907.09;5054122;28;19928;-74
2022/09/14 00:37:26;;;;;;;;;;;;;;;13.22;100.00;100899.13;5054350;28;19924;-73
2022/09/14 00:39:51;;;;;;;;;;;;;;;13.23;100.00;100898.19;5056608;28;20389;-73
2022/09/14 00:42:18;;;;;;;;;;;;;;;13.25;100.00;100895.44;5056758;28;20002;-74
2022/09/14 00:44:46;;;;;;;;;;;;;;;13.28;100.00;100889.94;5034411;28;19951;-74
2022/09/14 00:47:12;;;;;;;;;;;;;;;13.29;100.00;100879.22;5067821;28;19929;-74
2022/09/14 00:49:38;;;;;;;;;;;;;;;13.30;100.00;100888.06;5050507;28;20005;-74
2022/09/14 00:52:19;;;;;;;;;;;;;;;13.32;100.00;100888.84;5051608;28;19928;-74
2022/09/14 00:54:49;;;;;;;;;;;;;;;13.33;100.00;100882.56;5053003;28;19937;-74
2022/09/14 00:57:15;;;;;;;;;;;;;;;13.34;100.00;100876.31;5050999;28;20166;-74
2022/09/14 00:59:41;;;;;;;;;;;;;;;13.37;100.00;100877.94;5033341;28;19928;-74
2022/09/14 01:02:07;;;;;;;;;;;;;;;13.38;100.00;100869.88;5052021;28;19933;-74
2022/09/14 01:04:33;;;;;;;;;;;;;;;13.41;100.00;100875.00;5050596;28;19921;-74
2022/09/14 01:07:05;;;;;;;;;;;;;;;13.42;100.00;100868.75;5036962;28;19937;-74
2022/09/14 01:09:37;;;;;;;;;;;;;;;13.44;100.00;100869.53;5034825;28;19959;-74
2022/09/14 01:12:13;;;;;;;;;;;;;;;13.47;100.00;100867.66;5046390;28;19931;-74
2022/09/14 01:14:45;;;;;;;;;;;;;;;13.49;100.00;100868.41;5036097;28;19924;-74
2022/09/14 01:17:15;;;;;;;;;;;;;;;13.49;100.00;100856.00;5050763;28;20283;-74
2022/09/14 01:19:46;;;;;;;;;;;;;;;13.50;100.00;100859.53;5051074;28;19928;-74
2022/09/14 01:22:21;;;;;;;;;;;;;;;13.51;100.00;100850.59;5050626;28;21171;-74
2022/09/14 01:24:59;;;;;;;;;;;;;;;13.54;100.00;100858.38;5037816;28;19931;-74
2022/09/14 01:27:35;;;;;;;;;;;;;;;13.53;100.00;100849.56;5051692;28;19934;-74
2022/09/14 01:30:14;;;;;;;;;;;;;;;13.55;100.00;100854.78;5049905;28;19927;-74
2022/09/14 01:32:44;;;;;;;;;;;;;;;13.55;100.00;100847.66;5056245;28;19950;-74
2022/09/14 01:35:11;;;;;;;;;;;;;;;13.56;100.00;100851.16;5055117;28;19924;-73
2022/09/14 01:37:41;;;;;;;;;;;;;;;13.55;100.00;100850.31;5047820;28;20530;-74
2022/09/14 01:40:19;;;;;;;;;;;;;;;13.56;100.00;100851.16;5044894;28;19924;-74
2022/09/14 01:42:45;;;;;;;;;;;;;;;13.54;100.00;100858.38;5056580;28;19960;-73
2022/09/14 01:45:11;;;;;;;;;;;;;;;13.53;100.00;100859.34;5045528;28;19932;-73
2022/09/14 01:47:41;;;;;;;;;;;;;;;13.52;100.00;100846.97;5057576;28;19942;-73
2022/09/14 01:50:09;;;;;;;;;;;;;;;13.50;100.00;100857.72;5038741;28;20030;-73
2022/09/14 01:52:39;;;;;;;;;;;;;;;13.50;100.00;100852.38;5055232;28;20315;-74
2022/09/14 01:55:06;;;;;;;;;;;;;;;13.50;100.00;100840.91;5042703;28;20215;-74
2022/09/14 01:57:35;;;;;;;;;;;;;;;13.50;100.00;100840.91;5054794;28;19933;-74
2022/09/14 02:00:03;;;;;;;;;;;;;;;13.50;100.00;100844.41;5056532;28;20009;-74
2022/09/14 02:02:31;;;;;;;;;;;;;;;13.49;100.00;100840.03;5054883;28;20099;-74
2022/09/14 02:04:57;;;;;;;;;;;;;;;13.47;100.00;100833.97;5058030;28;19947;-74
2022/09/14 02:07:22;;;;;;;;;;;;;;;13.46;100.00;100829.59;5055475;28;20371;-74
2022/09/14 02:09:51;;;;;;;;;;;;;;;13.44;100.00;100824.31;5069624;28;19925;-74
2022/09/14 02:12:16;;;;;;;;;;;;;;;13.43;100.00;100827.06;5056875;28;19960;-74
2022/09/14 02:14:42;;;;;;;;;;;;;;;13.40;100.00;100822.78;5055478;28;20015;-74
2022/09/14 02:17:08;;;;;;;;;;;;;;;13.38;100.00;100813.16;5055163;28;19970;-74
2022/09/14 02:19:35;;;;;;;;;;;;;;;13.35;100.00;100816.84;5054232;28;19932;-74
2022/09/14 02:22:00;;;;;;;;;;;;;;;13.35;100.00;100822.19;5055184;28;19928;-74
2022/09/14 02:24:26;;;;;;;;;;;;;;;13.33;100.00;100823.22;5055395;28;20387;-74
2022/09/14 02:26:51;;;;;;;;;;;;;;;13.31;100.00;100823.31;5051705;28;19921;-74
2022/09/14 02:29:17;;;;;;;;;;;;;;;13.30;100.00;100819.78;5056533;28;19928;-74
2022/09/14 02:31:42;;;;;;;;;;;;;;;13.30;100.00;100821.59;5054424;28;20723;-74
2022/09/14 02:34:26;;;;;;;;;;;;;;;13.30;100.00;100816.28;5055572;28;20016;-74
2022/09/14 02:36:55;;;;;;;;;;;;;;;13.29;100.00;100812.75;5054589;28;20376;-74
2022/09/14 02:39:23;;;;;;;;;;;;;;;13.29;100.00;100814.59;5045672;28;19925;-74
2022/09/14 02:41:57;;;;;;;;;;;;;;;13.27;100.00;100809.34;5050403;28;19924;-74
2022/09/14 02:44:35;;;;;;;;;;;;;;;13.26;100.00;100806.75;5054468;28;19925;-73
2022/09/14 02:47:10;;;;;;;;;;;;;;;13.26;100.00;100804.97;5053338;28;20050;-74
2022/09/14 02:49:43;;;;;;;;;;;;;;;13.27;100.00;100797.84;5055770;28;19927;-73
2022/09/14 02:52:12;;;;;;;;;;;;;;;13.27;100.00;100792.53;5050027;28;19928;-73
2022/09/14 02:54:49;;;;;;;;;;;;;;;13.27;100.00;100790.72;5053994;28;20013;-73
2022/09/14 02:57:15;;;;;;;;;;;;;;;13.31;100.00;100786.09;5068094;28;20411;-73
2022/09/14 02:59:40;;;;;;;;;;;;;;;13.31;100.00;100776.28;5037672;28;20023;-74
2022/09/14 03:02:05;;;;;;;;;;;;;;;13.33;100.00;100778.03;5053514;28;19932;-74
2022/09/14 03:04:31;;;;;;;;;;;;;;;13.32;100.00;100777.16;5052007;28;20019;-74
2022/09/14 03:06:57;;;;;;;;;;;;;;;13.33;100.00;100775.38;5055426;28;20366;-74
2022/09/14 03:09:22;;;;;;;;;;;;;;;13.34;100.00;100777.94;5052748;28;20416;-74
2022/09/14 03:11:47;;;;;;;;;;;;;;;13.36;100.00;100780.50;5051144;28;19929;-73
2022/09/14 03:14:13;;;;;;;;;;;;;;;13.37;100.00;100777.75;5051575;28;19928;-73
2022/09/14 03:16:38;;;;;;;;;;;;;;;13.38;100.00;100776.81;5050581;28;19948;-74
2022/09/14 03:19:04;;;;;;;;;;;;;;;13.41;100.00;100786.41;5054752;28;19935;-73
2022/09/14 03:21:30;;;;;;;;;;;;;;;13.43;100.00;100782.72;5055567;28;20320;-73
2022/09/14 03:23:56;;;;;;;;;;;;;;;13.45;100.00;100777.28;5054293;28;20019;-74
2022/09/14 03:26:22;;;;;;;;;;;;;;;13.49;100.00;100775.34;5053409;28;19982;-73
2022/09/14 03:28:51;;;;;;;;;;;;;;;13.49;100.00;100770.88;5054225;28;21636;-73
2022/09/14 03:31:17;;;;;;;;;;;;;;;13.50;100.00;100766.44;5051541;28;20434;-73
2022/09/14 03:33:42;;;;;;;;;;;;;;;13.52;100.00;100772.53;5054649;28;20414;-74
2022/09/14 03:36:08;;;;;;;;;;;;;;;13.54;100.00;100773.28;5055265;28;20385;-73
2022/09/14 03:38:34;;;;;;;;;;;;;;;13.54;100.00;100766.16;5053638;28;19935;-73
2022/09/14 03:40:59;;;;;;;;;;;;;;;13.56;100.00;100771.38;5054274;28;19928;-73
2022/09/14 03:43:25;;;;;;;;;;;;;;;13.59;100.00;100771.19;5052123;28;19979;-73
2022/09/14 03:45:51;;;;;;;;;;;;;;;13.60;100.00;100754.28;5044884;28;19936;-73
2022/09/14 03:48:16;;;;;;;;;;;;;;;13.61;100.00;100758.66;5070296;28;20060;-74
2022/09/14 03:50:42;;;;;;;;;;;;;;;13.61;100.00;100763.97;5054893;28;20096;-73
2022/09/14 03:53:07;;;;;;;;;;;;;;;13.61;100.00;100757.81;5050763;28;20280;-73
2022/09/14 03:55:32;;;;;;;;;;;;;;;13.62;100.00;100755.06;5045526;28;20020;-73
2022/09/14 03:57:58;;;;;;;;;;;;;;;13.63;100.00;100756.78;5055294;28;19947;-72
2022/09/14 04:00:23;;;;;;;;;;;;;;;13.63;100.00;100745.28;5053159;28;19936;-73
2022/09/14 04:02:48;;;;;;;;;;;;;;;13.64;100.00;100747.84;5054722;28;20396;-74
2022/09/14 04:05:14;;;;;;;;;;;;;;;13.65;100.00;100746.91;5055166;28;20387;-73
2022/09/14 04:07:39;;;;;;;;;;;;;;;13.65;100.00;100746.91;5052172;28;19931;-73
2022/09/14 04:10:05;;;;;;;;;;;;;;;13.65;100.00;100733.59;5052297;28;20362;-73
2022/09/14 04:12:37;;;;;;;;;;;;;;;13.65;100.00;100736.25;5044383;28;19936;-73
2022/09/14 04:15:06;;;;;;;;;;;;;;;13.65;100.00;100730.94;5051142;28;19936;-73
2022/09/14 04:17:32;;;;;;;;;;;;;;;13.65;100.00;100733.59;5036124;28;20504;-73
2022/09/14 04:19:57;;;;;;;;;;;;;;;13.63;100.00;100727.53;5054189;28;20051;-73
2022/09/14 04:22:22;;;;;;;;;;;;;;;13.61;100.00;100732.06;5054825;28;19933;-74
2022/09/14 04:24:48;;;;;;;;;;;;;;;13.58;100.00;100738.41;5053388;28;19943;-74
2022/09/14 04:27:13;;;;;;;;;;;;;;;13.56;100.00;100739.44;5049776;28;20049;-74
2022/09/14 04:29:39;;;;;;;;;;;;;;;13.55;100.00;100732.44;5047712;28;19933;-74
2022/09/14 04:32:04;;;;;;;;;;;;;;;13.54;100.00;100734.25;5050704;28;19971;-74
2022/09/14 04:34:29;;;;;;;;;;;;;;;13.53;100.00;100731.66;5053290;28;19938;-74
2022/09/14 04:36:55;;;;;;;;;;;;;;;13.52;100.00;100722.81;5051205;28;19932;-74
2022/09/14 04:39:21;;;;;;;;;;;;;;;13.51;100.00;100723.78;5051952;28;20645;-74
2022/09/14 04:41:46;;;;;;;;;;;;;;;13.51;100.00;100725.59;5054532;28;19928;-73
2022/09/14 04:44:13;;;;;;;;;;;;;;;13.51;100.00;100730.91;5051269;28;21521;-73
2022/09/14 04:46:40;;;;;;;;;;;;;;;13.50;100.00;100723.88;5049444;28;19935;-73
2022/09/14 04:49:05;;;;;;;;;;;;;;;13.49;100.00;100723.03;5052460;28;19936;-73
2022/09/14 04:51:32;;;;;;;;;;;;;;;13.49;100.00;100717.69;5052554;28;19932;-73
2022/09/14 04:53:58;;;;;;;;;;;;;;;13.49;100.00;100717.69;5053645;28;19928;-72
2022/09/14 04:56:24;;;;;;;;;;;;;;;13.50;100.00;100721.22;5053222;28;19924;-73
2022/09/14 04:58:51;;;;;;;;;;;;;;;13.49;100.00;100716.84;5051795;28;19960;-74
2022/09/14 05:01:17;;;;;;;;;;;;;;;13.48;100.00;100721.31;5053703;28;21362;-73
2022/09/14 05:03:43;;;;;;;;;;;;;;;13.48;100.00;100721.31;5052149;28;19936;-73
2022/09/14 05:06:12;;;;;;;;;;;;;;;13.48;100.00;100723.97;5051819;28;19932;-73
2022/09/14 05:08:37;;;;;;;;;;;;;;;13.50;100.00;100729.22;5037841;28;19925;-73
2022/09/14 05:11:03;;;;;;;;;;;;;;;13.52;100.00;100722.00;5070067;28;19951;-74
2022/09/14 05:13:29;;;;;;;;;;;;;;;13.54;100.00;100728.94;5052182;28;19924;-73
2022/09/14 05:15:54;;;;;;;;;;;;;;;13.57;100.00;100730.56;5052579;28;21270;-74
2022/09/14 05:18:20;;;;;;;;;;;;;;;13.60;100.00;100726.81;5036364;28;19956;-73
2022/09/14 05:20:45;;;;;;;;;;;;;;;13.63;100.00;100726.66;5050566;28;19992;-74
2022/09/14 05:23:11;;;;;;;;;;;;;;;13.64;100.00;100715.06;5049908;28;19990;-74
2022/09/14 05:25:36;;;;;;;;;;;;;;;13.64;100.00;100715.06;5051251;28;19985;-73
2022/09/14 05:28:01;;;;;;;;;;;;;;;13.65;100.00;100722.97;5051545;28;20307;-73
2022/09/14 05:30:27;;;;;;;;;;;;;;;13.67;100.00;100714.91;5049608;28;19932;-74
2022/09/14 05:32:52;;;;;;;;;;;;;;;13.66;100.00;100714.03;5036908;28;20606;-74
2022/09/14 05:35:17;;;;;;;;;;;;;;;13.68;100.00;100709.47;5036562;28;19931;-74
2022/09/14 05:37:43;;;;;;;;;;;;;;;13.69;100.00;100703.19;5034629;28;19920;-74
2022/09/14 05:40:08;;;;;;;;;;;;;;;13.70;100.00;100710.25;5035100;28;20302;-74
2022/09/14 05:42:34;;;;;;;;;;;;;;;13.72;100.00;100704.81;5052640;28;19939;-74
2022/09/14 05:44:59;;;;;;;;;;;;;;;13.74;100.00;100694.09;5052803;28;21334;-74
2022/09/14 05:47:25;;;;;;;;;;;;;;;13.78;100.00;100692.97;5054775;28;20413;-74
2022/09/14 05:49:50;;;;;;;;;;;;;;;13.80;100.00;100693.72;5052151;28;19939;-74
2022/09/14 05:52:16;;;;;;;;;;;;;;;13.83;100.00;100693.50;5053122;28;19924;-74
2022/09/14 05:54:41;;;;;;;;;;;;;;;13.85;100.00;100692.47;5043088;28;20018;-74
2022/09/14 05:57:06;;;;;;;;;;;;;;;13.88;100.00;100686.09;5052395;28;20026;-74
2022/09/14 05:59:32;;;;;;;;;;;;;;;13.90;100.00;100686.84;5051761;28;20018;-74
2022/09/14 06:01:57;;;;;;;;;;;;;;;13.94;100.00;100683.06;5051317;28;19928;-74
2022/09/14 06:04:23;;;;;;;;;;;;;;;13.97;100.00;100690.00;5054078;28;19943;-74
2022/09/14 06:06:48;;;;;;;;;;;;;;;13.99;100.00;100680.97;5051382;28;20050;-74
2022/09/14 06:09:14;;;;;;;;;;;;;;;14.03;100.00;100680.78;5050762;28;20567;-74
2022/09/14 06:11:40;;;;;;;;;;;;;;;14.06;100.00;100686.75;5050558;28;19960;-74
2022/09/14 06:14:06;;;;;;;;;;;;;;;14.09;100.00;100688.38;5048978;28;20050;-73
2022/09/14 06:16:31;;;;;;;;;;;;;;;14.12;100.00;100691.69;5048838;28;19940;-74
2022/09/14 06:18:57;;;;;;;;;;;;;;;14.15;100.00;100690.66;5052722;28;20019;-74
2022/09/14 06:21:23;;;;;;;;;;;;;;;14.20;100.00;100690.34;5031194;28;20028;-74
2022/09/14 06:23:49;;;;;;;;;;;;;;;14.23;100.00;100691.00;5048985;28;20003;-74
2022/09/14 06:26:15;;;;;;;;;;;;;;;14.29;100.00;100705.75;5051360;28;19967;-73
2022/09/14 06:28:40;;;;;;;;;;;;;;;14.36;100.00;100700.88;5046064;28;19923;-72
2022/09/14 06:31:06;;;;;;;;;;;;;;;14.42;100.00;100699.66;5055268;28;20675;-73
2022/09/14 06:33:32;;;;;;;;;;;;;;;14.47;100.00;100698.41;5055409;28;20501;-73
2022/09/14 06:35:57;;;;;;;;;;;;;;;14.52;100.00;100701.63;5053188;28;19928;-72
2022/09/14 06:38:23;;;;;;;;;;;;;;;14.58;100.00;100705.69;5053150;28;20393;-72
2022/09/14 06:40:58;;;;;;;;;;;;;;;14.65;100.00;100711.47;5053490;28;20067;-73
2022/09/14 06:43:24;;;;;;;;;;;;;;;14.69;100.00;100707.66;5052455;28;20654;-73
2022/09/14 06:46:01;;;;;;;;;;;;;;;14.75;100.00;100711.75;5050459;28;19928;-72
2022/09/14 06:48:37;;;;;;;;;;;;;;;14.77;100.00;100715.19;5055509;28;20001;-73
2022/09/14 06:51:12;;;;;;;;;;;;;;;14.82;100.00;100709.56;5028722;28;20007;-73
2022/09/14 06:53:37;;;;;;;;;;;;;;;14.88;100.00;100709.16;5054068;28;19978;-72
2022/09/14 06:56:03;;;;;;;;;;;;;;;14.93;100.00;100709.72;5053016;28;19923;-72
2022/09/14 06:58:29;;;;;;;;;;;;;;;14.99;100.00;100713.78;5062066;28;20654;-74
2022/09/14 07:00:54;;;;;;;;;;;;;;;15.04;100.00;100717.84;5053958;28;19932;-75
2022/09/14 07:03:19;;;;;;;;;;;;;;;15.10;100.00;100710.41;5041878;28;19935;-75
2022/09/14 07:05:45;;;;;;;;;;;;;;;15.14;100.00;100706.59;5053633;28;21394;-75
2022/09/14 07:08:10;;;;;;;;;;;;;;;15.17;100.00;100703.69;5056265;28;19964;-74
2022/09/14 07:10:35;;;;;;;;;;;;;;;15.19;100.00;100699.09;5053900;28;19935;-74
2022/09/14 07:13:01;;;;;;;;;;;;;;;15.21;100.00;100697.22;5036847;28;21477;-75
2022/09/14 07:15:26;;;;;;;;;;;;;;;15.23;100.00;100689.94;5054557;28;19932;-75
2022/09/14 07:17:52;;;;;;;;;;;;;;;15.25;100.00;100706.69;5055271;28;20025;-75
2022/09/14 07:20:17;;;;;;;;;;;;;;;15.28;100.00;100705.63;5071297;28;20459;-75
2022/09/14 07:22:44;;;;;;;;;;;;;;;15.31;100.00;100706.28;5046201;28;19936;-75
2022/09/14 07:25:09;;;;;;;;;;;;;;;15.34;100.00;100700.75;5037947;28;20013;-75
2022/09/14 07:27:37;;;;;;;;;;;;;;;15.38;100.00;100708.53;5052684;28;19928;-75
2022/09/14 07:30:03;;;;;;;;;;;;;;;15.42;100.00;100712.72;5041429;28;20609;-75
2022/09/14 07:32:29;;;;;;;;;;;;;;;15.45;100.00;100712.50;5039149;28;19939;-74
2022/09/14 07:34:54;;;;;;;;;;;;;;;15.48;100.00;100707.78;5055779;28;20311;-75
2022/09/14 07:37:20;;;;;;;;;;;;;;;15.52;100.00;100707.59;5052574;28;20148;-75
2022/09/14 07:39:45;;;;;;;;;;;;;;;15.55;100.00;100708.25;5052198;28;19928;-75
2022/09/14 07:42:11;;;;;;;;;;;;;;;15.55;100.00;100705.56;5055274;28;19967;-75
2022/09/14 07:44:36;;;;;;;;;;;;;;;15.59;100.00;100707.06;5037138;28;20023;-75
2022/09/14 07:47:01;;;;;;;;;;;;;;;15.59;100.00;100706.22;5048818;28;19936;-75
2022/09/14 07:49:27;;;;;;;;;;;;;;;15.59;100.00;100708.88;5055155;28;19931;-75
2022/09/14 07:51:52;;;;;;;;;;;;;;;15.60;100.00;100716.75;5049248;28;20017;-75
2022/09/14 07:54:18;;;;;;;;;;;;;;;15.63;100.00;100721.03;5054235;28;20488;-75
2022/09/14 07:56:44;;;;;;;;;;;;;;;15.63;100.00;100714.88;5052098;28;19997;-75
2022/09/14 07:59:10;;;;;;;;;;;;;;;15.67;100.00;100719.00;5055114;28;19964;-75
2022/09/14 08:01:35;;;;;;;;;;;;;;;15.73;100.00;100718.59;5052799;28;20287;-75
2022/09/14 08:04:01;;;;;;;;;;;;;;;15.79;100.00;100710.16;5055797;28;19924;-74
2022/09/14 08:06:27;;;;;;;;;;;;;;;15.85;100.00;100712.41;5052182;28;19936;-73
2022/09/14 08:08:53;;;;;;;;;;;;;;;15.88;100.00;100711.34;5043580;28;19928;-74
2022/09/14 08:11:19;;;;;;;;;;;;;;;15.93;100.00;100708.38;5055153;28;19973;-74
2022/09/14 08:13:49;;;;;;;;;;;;;;;15.96;100.00;100708.19;5054573;28;20314;-74
2022/09/14 08:16:14;;;;;;;;;;;;;;;16.01;100.00;100706.88;5034055;28;19933;-73
2022/09/14 08:18:40;;;;;;;;;;;;;;;16.04;100.00;100705.81;5055204;28;19998;-74
2022/09/14 08:21:06;;;;;;;;;;;;;;;16.10;100.00;100708.03;5049930;28;20015;-73
2022/09/14 08:23:32;;;;;;;;;;;;;;;16.17;100.00;100710.28;5049532;28;19951;-73
2022/09/14 08:26:02;;;;;;;;;;;;;;;16.26;100.00;100701.59;5051702;28;20388;-73
2022/09/14 08:28:27;;;;;;;;;;;;;;;16.27;99.54;100692.63;5052879;28;19948;-73
2022/09/14 08:30:52;;;;;;;;;;;;;;;16.32;100.00;100687.81;5048130;28;20071;-73
2022/09/14 08:33:18;;;;;;;;;;;;;;;16.38;100.00;100690.03;5046856;28;20557;-74
2022/09/14 08:35:44;;;;;;;;;;;;;;;16.41;100.00;100679.09;5038131;28;19928;-74
2022/09/14 08:38:09;;;;;;;;;;;;;;;16.46;100.00;100683.28;5046691;28;20966;-74
2022/09/14 08:40:41;;;;;;;;;;;;;;;16.51;100.00;100686.47;5038174;28;19935;-74
2022/09/14 08:43:07;;;;;;;;;;;;;;;16.54;100.00;100686.22;5047944;28;20480;-74
2022/09/14 08:45:32;;;;;;;;;;;;;;;16.60;100.00;100695.63;5047280;28;19941;-74
2022/09/14 08:47:58;;;;;;;;;;;;;;;16.63;100.00;100693.59;5047512;28;19936;-73
2022/09/14 08:50:24;;;;;;;;;;;;;;;16.64;99.62;100695.28;5048693;28;19928;-73
2022/09/14 08:52:51;;;;;;;;;;;;;;;16.67;100.00;100695.06;5048463;28;19939;-73
2022/09/14 08:55:36;;;;;;;;;;;;;;;16.70;99.88;100694.84;5047077;28;19928;-72
2022/09/14 08:58:19;;;;;;;;;;;;;;;16.72;99.02;100689.38;5046832;28;19940;-73
2022/09/14 09:01:03;;;;;;;;;;;;;;;16.79;98.86;100695.13;5048023;28;20778;-73
2022/09/14 09:03:34;;;;;;;;;;;;;;;16.84;98.65;100696.47;5049555;28;19932;-73
2022/09/14 09:06:18;;;;;;;;;;;;;;;16.91;97.26;100699.56;5048224;28;20023;-73
2022/09/14 09:08:44;;;;;;;;;;;;;;;16.95;94.90;100695.66;5048902;28;20512;-73
2022/09/14 09:11:14;;;;;;;;;;;;;;;16.98;96.06;100699.94;5046090;28;19928;-72
2022/09/14 09:13:39;;;;;;;;;;;;;;;16.94;95.81;100696.66;5033706;28;19920;-73
2022/09/14 09:16:05;;;;;;;;;;;;;;;16.99;97.21;100693.63;5046993;28;19951;-72
2022/09/14 09:18:41;;;;;;;;;;;;;;;17.08;97.59;100694.78;5047658;28;19991;-72
2022/09/14 09:21:09;;;;;;;;;;;;;;;17.21;96.52;100695.56;5041960;28;19935;-71
2022/09/14 09:23:35;;;;;;;;;;;;;;;17.27;95.77;100696.91;5051440;28;19962;-71
2022/09/14 09:26:16;;;;;;;;;;;;;;;17.27;93.95;100688.03;5036194;28;19928;-71
2022/09/14 09:28:44;;;;;;;;;;;;;;;17.24;90.57;100683.78;5051691;28;19928;-71
2022/09/14 09:31:10;;;;;;;;;;;;;;;17.23;89.43;100682.06;5051284;28;19985;-76
2022/09/14 09:33:35;;;;;;;;;;;;;;;17.29;90.03;100678.06;5040416;28;19928;-78
2022/09/14 09:36:00;;;;;;;;;;;;;;;17.39;88.51;100671.06;5049584;28;19925;-76
2022/09/14 09:38:27;;;;;;;;;;;;;;;17.55;90.00;100668.03;5050585;28;19934;-76
2022/09/14 09:41:00;;;;;;;;;;;;;;;17.67;89.90;100663.53;5053674;28;19931;-77
2022/09/14 09:43:26;;;;;;;;;;;;;;;17.75;88.90;100661.13;5053633;28;20387;-77
2022/09/14 09:45:54;;;;;;;;;;;;;;;17.78;87.66;100671.56;5054172;28;19956;-77
2022/09/14 09:48:24;;;;;;;;;;;;;;;17.83;88.63;100665.88;5041663;28;19936;-77
2022/09/14 09:50:51;;;;;;;;;;;;;;;17.94;88.98;100661.47;5049524;28;19931;-77
2022/09/14 09:53:17;;;;;;;;;;;;;;;18.09;87.32;100662.94;5051562;28;19929;-77
2022/09/14 09:55:45;;;;;;;;;;;;;;;18.12;86.05;100660.03;5052587;28;20044;-77
2022/09/14 09:58:21;;;;;;;;;;;;;;;18.19;86.15;100660.38;5054041;28;20925;-76
2022/09/14 10:00:57;;;;;;;;;;;;;;;18.24;84.99;100660.88;5052394;28;19924;-77
2022/09/14 10:03:27;;;;;;;;;;;;;;;18.29;85.70;100657.81;5052671;28;20035;-78
2022/09/14 10:06:03;;;;;;;;;;;;;;;18.29;81.75;100663.16;5055465;28;19924;-77
2022/09/14 10:08:33;;;;;;;;;;;;;;;18.32;82.60;100657.56;5069621;28;19932;-78
2022/09/14 10:11:00;;;;;;;;;;;;;;;18.32;82.73;100663.75;5052840;28;19921;-78
2022/09/14 10:13:33;;;;;;;;;;;;;;;18.29;82.78;100656.00;5053713;28;19996;-77
2022/09/14 10:16:13;;;;;;;;;;;;;;;18.35;82.72;100654.63;5056113;28;20379;-78
2022/09/14 10:18:45;;;;;;;;;;;;;;;18.41;82.60;100650.63;5054444;28;19935;-77
2022/09/14 10:21:11;;;;;;;;;;;;;;;18.45;82.52;100647.56;5057742;28;20831;-75
2022/09/14 10:23:37;;;;;;;;;;;;;;;18.48;81.29;100641.09;5056621;28;19978;-75
2022/09/14 10:26:18;;;;;;;;;;;;;;;18.50;82.85;100644.50;5054710;28;20015;-75
2022/09/14 10:28:45;;;;;;;;;;;;;;;18.54;81.51;100635.22;5055958;28;19929;-75
2022/09/14 10:31:10;;;;;;;;;;;;;;;18.52;81.74;100637.16;5056079;28;20493;-75
2022/09/14 10:33:36;;;;;;;;;;;;;;;18.51;80.82;100638.16;5056946;28;20003;-74
2022/09/14 10:36:10;;;;;;;;;;;;;;;18.47;81.07;100644.75;5056073;28;19924;-75
2022/09/14 10:38:41;;;;;;;;;;;;;;;18.45;82.12;100641.31;5051884;28;19924;-74
2022/09/14 10:41:10;;;;;;;;;;;;;;;18.44;81.23;100645.00;5053398;28;19924;-74
2022/09/14 10:43:47;;;;;;;;;;;;;;;18.44;83.20;100639.63;5055936;28;19971;-71
2022/09/14 10:46:15;;;;;;;;;;;;;;;18.40;81.71;100640.84;5054027;28;19924;-72
2022/09/14 10:48:44;;;;;;;;;;;;;;;18.33;82.82;100640.50;5054599;28;19989;-73
2022/09/14 10:51:19;;;;;;;;;;;;;;;18.35;82.98;100637.72;5054877;28;19978;-72
2022/09/14 10:54:03;;;;;;;;;;;;;;;18.32;83.51;100626.25;5054627;28;20120;-73
2022/09/14 10:56:42;;;;;;;;;;;;;;;18.30;83.54;100632.75;5014348;28;19924;-73
2022/09/14 10:59:14;;;;;;;;;;;;;;;18.34;87.06;100636.03;5039131;28;19929;-71
2022/09/14 11:01:39;;;;;;;;;;;;;;;18.38;86.50;100634.78;5055168;28;20030;-74
2022/09/14 11:04:17;;;;;;;;;;;;;;;18.40;85.14;100622.94;5055265;28;19924;-72
2022/09/14 11:06:44;;;;;;;;;;;;;;;18.50;85.00;100631.09;5056983;28;20054;-73
2022/09/14 11:09:13;;;;;;;;;;;;;;;18.49;83.65;100621.34;5058016;28;19932;-73
2022/09/14 11:11:41;;;;;;;;;;;;;;;18.47;83.67;100620.63;5057498;28;19978;-73
2022/09/14 11:14:22;;;;;;;;;;;;;;;18.50;84.84;100623.03;5056130;28;19925;-73
2022/09/14 11:17:06;;;;;;;;;;;;;;;18.54;84.23;100624.50;5055977;28;19933;-74
2022/09/14 11:19:43;;;;;;;;;;;;;;;18.52;84.01;100631.81;5056539;28;19971;-73
2022/09/14 11:22:35;;;;;;;;;;;;;;;18.45;84.33;100627.94;5052742;28;19936;-73
2022/09/14 11:25:07;;;;;;;;;;;;;;;18.38;84.31;100626.72;5035826;28;19932;-73
2022/09/14 11:27:38;;;;;;;;;;;;;;;18.38;82.99;100630.28;5052567;28;19931;-73
2022/09/14 11:30:04;;;;;;;;;;;;;;;18.43;81.73;100619.19;5050302;28;19939;-74
2022/09/14 11:32:36;;;;;;;;;;;;;;;18.45;80.34;100627.94;5054906;28;19928;-74
2022/09/14 11:35:18;;;;;;;;;;;;;;;18.44;82.12;100632.47;5052375;28;19962;-73
2022/09/14 11:37:49;;;;;;;;;;;;;;;18.39;81.20;100628.44;5055220;28;19947;-74
2022/09/14 11:40:17;;;;;;;;;;;;;;;18.38;81.25;100629.41;5066952;28;19935;-73
2022/09/14 11:42:44;;;;;;;;;;;;;;;18.37;80.94;100628.59;5029256;28;20025;-73
2022/09/14 11:45:13;;;;;;;;;;;;;;;18.37;84.37;100617.00;5037227;28;19924;-74
2022/09/14 11:47:41;;;;;;;;;;;;;;;18.39;83.51;100626.63;5056889;28;20100;-73
2022/09/14 11:50:18;;;;;;;;;;;;;;;18.43;82.12;100627.22;5053953;28;20562;-74
2022/09/14 11:52:44;;;;;;;;;;;;;;;18.45;79.05;100622.56;5054893;28;20489;-74
2022/09/14 11:55:10;;;;;;;;;;;;;;;18.45;78.94;100614.53;5054895;28;19928;-73
2022/09/14 11:57:36;;;;;;;;;;;;;;;18.46;81.08;100618.91;5051869;28;20649;-72
2022/09/14 12:00:06;;;;;;;;;;;;;;;18.38;79.41;100618.69;5051187;28;19928;-72
2022/09/14 12:02:31;;;;;;;;;;;;;;;18.40;79.10;100616.72;5053863;28;19924;-71
2022/09/14 12:04:59;;;;;;;;;;;;;;;18.38;78.14;100607.97;5053046;28;19986;-71
2022/09/14 12:07:45;;;;;;;;;;;;;;;18.41;80.13;100615.78;5055154;28;20033;-70
2022/09/14 12:10:16;;;;;;;;;;;;;;;18.38;76.87;100610.66;5046514;28;21725;-71
2022/09/14 12:12:46;;;;;;;;;;;;;;;18.40;76.49;100608.69;5050906;28;20759;-70
2022/09/14 12:15:24;;;;;;;;;;;;;;;18.44;76.04;100602.09;5053498;28;19932;-70
2022/09/14 12:17:49;;;;;;;;;;;;;;;18.50;78.80;100601.59;5053938;28;19930;-71
2022/09/14 12:20:41;;;;;;;;;;;;;;;18.55;77.31;100606.56;5035870;28;19928;-71
2022/09/14 12:23:10;;;;;;;;;;;;;;;18.66;78.06;100605.69;5030066;28;19928;-72
2022/09/14 12:25:36;;;;;;;;;;;;;;;18.69;76.57;100600.91;5054330;28;19928;-72
2022/09/14 12:28:01;;;;;;;;;;;;;;;18.77;76.49;100602.09;5052248;28;20050;-71
2022/09/14 12:30:53;;;;;;;;;;;;;;;18.85;76.07;100600.47;5050577;28;19921;-71
2022/09/14 12:33:31;;;;;;;;;;;;;;;18.89;77.21;100597.53;5044503;28;21419;-72
2022/09/14 12:35:57;;;;;;;;;;;;;;;18.91;75.03;100598.25;5055122;28;19928;-72
2022/09/14 12:38:28;;;;;;;;;;;;;;;18.95;76.99;100600.53;5051871;28;20022;-72
2022/09/14 12:41:00;;;;;;;;;;;;;;;18.97;74.58;100606.63;5051803;28;19928;-72